Latest Weather Observations for Bombala AWS

IDN60801

Issued at 8:35 pm EDT Sunday 26 October 2014 (issued every 30 minutes, with the page automatically refreshed every 10 minutes)

About weather observations | Map of weather stations | Latest weather observations for NSW | Other Formats
Station Details ID: 070328 Name: BOMBALA AWS Lat: -37.00 Lon: 149.23 Height: 760.5 m
Data from the previous 72 hours. | See also: Recent months at Bombala AWS
Date/Time
EDT
Temp
°C
App
Temp
°C
Dew
Point
Rel
Hum
%
Delta-T
°C
Wind Press
QNH
hPa
Press
MSL
hPa
Rain
since 9 am
mm
Dir
 
Spd
km/h
Gust
km/h
Spd
kts
Gust
kts
26/08:30pm 11.2 9.9 11.2 100 0.0 SE 9 13 5 7 1013.5 1012.7 0.2
26/08:00pm 11.1 10.3 11.1 100 0.0 S 6 7 3 4 1013.6 1012.8 0.2
26/07:30pm 11.6 10.9 11.4 99 0.1 SSE 6 7 3 4 1013.6 1012.8 0.2
26/07:00pm 12.2 11.1 12.0 99 0.1 SE 9 13 5 7 1013.3 1012.5 0.2
26/06:30pm 12.7 11.0 12.5 99 0.1 SE 13 17 7 9 1013.1 1012.3 0.2
26/06:00pm 13.6 11.0 13.3 98 0.2 SSE 19 24 10 13 1013.2 1012.4 0.2
26/05:30pm 14.3 12.1 13.2 93 0.6 SSE 17 20 9 11 1013.1 1012.3 0.2
26/05:00pm 15.0 12.9 13.7 92 0.8 SE 17 24 9 13 1012.3 1011.5 0.2
26/04:30pm 15.9 13.9 13.9 88 1.2 SE 17 22 9 12 1012.1 1011.3 0.2
26/04:00pm 16.3 13.8 14.1 87 1.3 SE 20 26 11 14 1011.8 1011.0 0.2
26/03:30pm 17.2 15.1 16.1 93 0.7 SSE 22 28 12 15 1012.0 1011.2 0.2
26/03:00pm 16.8 14.9 15.8 94 0.6 SSE 20 26 11 14 1012.1 1011.3 0.2
26/02:30pm 16.4 13.6 15.4 94 0.6 SSE 24 28 13 15 1012.1 1011.3 0.2
26/02:00pm 17.4 15.0 16.4 94 0.6 SSE 24 28 13 15 1012.3 1011.5 0.2
26/01:30pm 17.9 16.3 16.1 89 1.1 SSE 19 24 10 13 1012.6 1011.7 0.2
26/01:00pm 17.8 17.3 15.8 88 1.2 SE 13 20 7 11 1012.6 1011.7 0.2
26/12:30pm 17.2 17.4 14.8 86 1.4 ESE 7 11 4 6 1012.8 1011.9 0.2
26/12:00pm 16.5 16.7 14.2 86 1.4 SSE 6 9 3 5 1012.8 1011.9 0.2
26/11:30am 15.5 15.2 13.3 87 1.3 SSE 7 13 4 7 1013.2 1012.4 0.2
26/11:00am 14.6 14.7 14.4 99 0.1 SE 7 11 4 6 1013.5 1012.7 0.0
26/10:30am 14.4 14.1 13.4 94 0.6 SW 7 11 4 6 1013.5 1012.7 0.0
26/10:00am 13.7 13.7 13.5 99 0.1 SSW 6 9 3 5 1013.4 1012.6 0.0
26/09:30am 13.1 12.9 12.9 99 0.1 SW 6 9 3 5 1013.2 1012.4 0.0
26/09:00am 12.6 12.2 12.4 99 0.1 W 6 11 3 6 1013.3 1012.5 1.2
26/08:30am 12.3 11.9 12.3 100 0.0 NW 6 9 3 5 1013.1 1012.3 1.2
26/08:00am 12.1 11.6 12.1 100 0.0 NW 6 11 3 6 1012.8 1011.9 1.2
26/07:30am 11.9 12.1 11.9 100 0.0 W 2 6 1 3 1012.7 1011.8 1.2
26/07:00am 11.6 11.7 11.6 100 0.0 W 2 4 1 2 1012.8 1011.9 1.2
26/06:30am 11.7 11.9 11.7 100 0.0 W 2 4 1 2 1012.9 1012.0 1.2
26/06:00am 11.7 12.2 11.7 100 0.0 NNW 0 0 0 0 1012.7 1011.8 1.2
26/05:30am 11.7 12.2 11.7 100 0.0 CALM 0 2 0 1 1012.3 1011.5 1.2
26/05:00am 11.7 11.5 11.7 100 0.0 NE 4 7 2 4 1012.3 1011.5 1.2
26/04:30am 11.7 11.9 11.7 100 0.0 NE 2 4 1 2 1012.6 1011.7 1.2
26/04:00am 11.8 12.0 11.8 100 0.0 ENE 2 6 1 3 1012.4 1011.6 1.2
26/03:30am 11.9 11.7 11.9 100 0.0 ENE 4 7 2 4 1012.8 1011.9 1.0
26/03:00am 11.8 11.2 11.8 100 0.0 NNE 6 9 3 5 1013.2 1012.4 1.0
26/02:30am 11.9 11.4 11.9 100 0.0 NNE 6 9 3 5 1013.3 1012.5 1.0
26/02:00am 11.9 11.2 11.9 100 0.0 NE 7 11 4 6 1014.1 1013.3 1.0
26/01:30am 11.9 11.2 11.9 100 0.0 NE 7 9 4 5 1014.4 1013.6 1.0
26/01:00am 12.0 11.5 12.0 100 0.0 E 6 9 3 5 1015.1 1014.3 1.0
26/12:30am 12.0 11.3 12.0 100 0.0 ENE 7 13 4 7 1015.7 1014.9 1.0
26/12:00am 12.0 10.9 12.0 100 0.0 E 9 13 5 7 1015.9 1015.1 1.0
 
Date/Time
EDT
Temp
°C
App
Temp
°C
Dew
Point
Rel
Hum
%
Delta-T
°C
Wind Press
QNH
hPa
Press
MSL
hPa
Rain
since 9 am
mm
Dir
 
Spd
km/h
Gust
km/h
Spd
kts
Gust
kts
25/11:30pm 12.0 10.9 12.0 100 0.0 NE 9 15 5 8 1016.3 1015.6 1.0
25/11:00pm 12.1 11.6 12.1 100 0.0 E 6 7 3 4 1016.2 1015.4 1.0
25/10:30pm 11.9 10.8 11.9 100 0.0 ENE 9 15 5 8 1016.3 1015.6 1.0
25/10:00pm 12.3 11.3 12.3 100 0.0 ENE 9 15 5 8 1016.5 1015.8 1.0
25/09:30pm 12.4 11.1 12.4 100 0.0 ENE 11 15 6 8 1016.6 1015.9 1.0
25/09:00pm 13.2 12.1 13.2 100 0.0 E 11 15 6 8 1016.5 1015.8 1.0
25/08:30pm 13.9 12.7 13.9 100 0.0 E 13 24 7 13 1016.3 1015.6 1.0
25/08:00pm 14.4 13.7 14.4 100 0.0 SE 11 15 6 8 1016.3 1015.6 1.0
25/07:30pm 15.0 14.9 15.0 100 0.0 E 9 15 5 8 1016.0 1015.2 1.0
25/07:00pm 15.3 14.5 15.1 99 0.1 SE 13 19 7 10 1015.7 1014.9 1.0
25/06:30pm 16.5 16.5 16.3 99 0.1 E 11 19 6 10 1015.6 1014.8 1.0
25/06:00pm 17.1 15.7 16.9 99 0.1 SE 20 30 11 16 1015.5 1014.7 1.0
25/05:30pm 17.0 18.2 16.8 99 0.1 SE 6 15 3 8 1016.2 1015.4 1.0
25/05:00pm 18.3 18.6 17.0 92 0.8 E 11 15 6 8 1014.7 1013.9 0.0
25/04:30pm 20.2 20.0 16.6 80 2.2 ESE 13 19 7 10 1014.6 1013.8 0.0
25/04:00pm 21.7 22.0 16.9 74 3.0 E 11 19 6 10 1014.6 1013.8 0.0
25/03:30pm 23.1 23.2 18.4 75 3.0 E 15 24 8 13 1015.0 1014.2 0.0
25/03:00pm 23.0 22.8 17.7 72 3.4 E 15 20 8 11 1015.2 1014.5 0.0
25/02:30pm 23.3 22.4 18.2 73 3.3 SSE 20 26 11 14 1015.6 1014.8 0.0
25/02:00pm 24.3 23.9 17.1 64 4.6 SE 15 24 8 13 1016.0 1015.2 0.0
25/01:30pm 25.7 23.8 9.1 35 9.4 SSW 9 17 5 9 1016.2 1015.4 0.0
25/01:00pm 25.2 22.0 9.9 38 8.7 SW 17 28 9 15 1016.4 1015.7 0.0
25/12:30pm 24.2 20.2 9.0 38 8.5 SW 20 26 11 14 1016.6 1015.9 0.0
25/12:00pm 23.6 21.0 10.6 44 7.4 W 15 22 8 12 1017.1 1016.3 0.0
25/11:30am 22.5 21.2 11.3 49 6.5 NW 9 15 5 8 1017.4 1016.6 0.0
25/11:00am 22.4 21.9 13.7 58 5.2 N 9 15 5 8 1017.5 1016.8 0.0
25/10:30am 20.9 20.9 14.1 65 4.1 NNW 7 11 4 6 1017.8 1017.1 0.0
25/10:00am 19.4 18.8 13.6 69 3.4 NNW 9 13 5 7 1017.8 1017.1 0.0
25/09:30am 17.7 17.5 13.0 74 2.7 N 6 7 3 4 1017.9 1017.2 0.0
25/09:00am 16.0 16.8 13.7 86 1.3 NNW 2 4 1 2 1017.8 1017.1 0.0
25/08:30am 15.0 16.2 13.9 93 0.6 CALM 0 0 0 0 1017.9 1017.2 0.0
25/08:00am 12.5 13.1 12.0 97 0.3 CALM 0 2 0 1 1017.9 1017.2 0.0
25/07:30am 10.5 9.5 10.3 99 0.1 SE 6 6 3 3 1017.5 1016.8 0.0
25/07:00am 8.8 7.4 8.8 100 0.0 NW 6 7 3 4 1017.2 1016.4 0.0
25/06:30am 8.1 6.3 8.1 100 0.0 NW 7 9 4 5 1017.0 1016.2 0.0
25/06:00am 7.5 5.8 7.5 100 0.0 WNW 6 7 3 4 1016.8 1016.0 0.0
25/05:30am 8.8 7.8 8.8 100 0.0 W 4 4 2 2 1016.5 1015.8 0.0
25/05:00am 9.3 8.4 9.3 100 0.0 NNW 4 4 2 2 1016.5 1015.8 0.0
25/04:30am 9.5 8.7 9.5 100 0.0 NNW 4 4 2 2 1016.1 1015.3 0.0
25/04:00am 9.8 9.0 9.8 100 0.0 NNW 4 6 2 3 1016.0 1015.2 0.0
25/03:30am 10.2 9.1 10.1 99 0.1 NNW 6 6 3 3 1016.1 1015.3 0.0
25/03:00am 10.0 8.7 9.9 99 0.1 N 7 7 4 4 1016.0 1015.2 0.0
25/02:30am 10.8 9.9 10.6 99 0.1 N 6 7 3 4 1015.9 1015.1 0.0
25/02:00am 11.4 11.4 11.2 99 0.1 N 2 6 1 3 1015.9 1015.1 0.0
25/01:30am 11.9 12.3 11.4 97 0.3 CALM 0 0 0 0 1015.9 1015.1 0.0
25/01:00am 12.1 12.6 11.6 97 0.3 CALM 0 0 0 0 1015.9 1015.1 0.0
25/12:30am 12.9 13.4 11.5 91 0.8 CALM 0 0 0 0 1015.9 1015.1 0.0
25/12:00am 13.1 13.5 11.3 89 1.0 CALM 0 0 0 0 1016.0 1015.2 0.0
 
Date/Time
EDT
Temp
°C
App
Temp
°C
Dew
Point
Rel
Hum
%
Delta-T
°C
Wind Press
QNH
hPa
Press
MSL
hPa
Rain
since 9 am
mm
Dir
 
Spd
km/h
Gust
km/h
Spd
kts
Gust
kts
24/11:30pm 14.1 14.5 11.3 83 1.5 CALM 0 0 0 0 1015.8 1015.0 0.0
24/11:00pm 15.5 16.0 11.5 77 2.2 CALM 0 0 0 0 1015.8 1015.0 0.0
24/10:30pm 15.6 16.0 11.4 76 2.3 CALM 0 0 0 0 1015.7 1014.9 0.0
24/10:00pm 16.8 17.0 11.7 72 2.9 SSE 2 4 1 2 1015.7 1014.9 0.0
24/09:30pm 16.4 15.4 12.4 77 2.3 SSE 9 13 5 7 1015.6 1014.8 0.0
24/09:00pm 17.9 18.7 12.6 71 3.1 CALM 0 0 0 0 1015.1 1014.3 0.0
24/08:30pm 18.0 17.0 10.4 61 4.2 WSW 6 9 3 5 1014.8 1014.0 0.0
24/08:00pm 18.7 17.7 12.2 66 3.7 W 9 9 5 5 1014.7 1013.9 0.0
24/07:30pm 19.7 18.3 12.2 62 4.3 W 11 13 6 7 1014.4 1013.6 0.0
24/07:00pm 20.1 19.3 12.8 63 4.3 W 9 13 5 7 1014.3 1013.5 0.0
24/06:30pm 21.2 18.1 12.3 57 5.2 WNW 20 24 11 13 1013.7 1012.9 0.0
24/06:00pm 22.6 18.2 11.7 50 6.3 WNW 26 32 14 17 1013.6 1012.8 0.0
24/05:30pm 23.3 19.3 10.4 44 7.4 NW 22 30 12 16 1013.4 1012.6 0.0
24/05:00pm 24.1 19.9 9.7 40 8.2 WNW 22 32 12 17 1013.1 1012.3 0.0
24/04:30pm 26.0 20.2 9.4 35 9.4 WNW 30 37 16 20 1013.0 1012.2 0.0
24/04:00pm 25.2 17.7 9.5 37 8.9 WNW 39 50 21 27 1013.1 1012.3 0.0
24/03:51pm 26.3 20.9 9.6 35 9.5 WNW 28 50 15 27 1013.0 1012.2 0.0
24/03:30pm 24.9 19.7 10.4 40 8.3 WNW 28 41 15 22 1013.3 1012.5 0.0
24/03:00pm 25.0 22.0 11.9 44 7.7 WNW 19 30 10 16 1013.6 1012.8 0.0
24/02:30pm 25.2 23.9 15.8 56 5.9 N 17 24 9 13 1013.7 1012.9 0.0
24/02:00pm 25.2 22.6 15.8 56 5.9 N 24 35 13 19 1014.1 1013.3 0.0
24/01:30pm 25.2 22.5 16.6 59 5.5 N 26 35 14 19 1014.3 1013.5 0.0
24/01:00pm 24.1 20.3 14.8 56 5.7 N 28 37 15 20 1014.7 1013.9 0.0
24/12:30pm 23.8 20.1 15.0 57 5.4 N 28 37 15 20 1015.1 1014.3 0.0
24/12:00pm 22.9 18.3 14.5 59 5.1 N 32 41 17 22 1015.6 1014.8 0.0
24/11:30am 22.4 18.0 14.0 59 5.1 NNW 30 41 16 22 1016.2 1015.4 0.0
24/11:00am 21.6 15.7 12.5 56 5.3 NNW 35 46 19 25 1016.6 1015.9 0.0
24/10:30am 20.9 16.1 12.8 60 4.8 N 30 39 16 21 1017.0 1016.2 0.0
24/10:00am 20.0 15.5 12.7 63 4.3 N 28 41 15 22 1017.4 1016.6 0.0
24/09:56am 19.7 14.8 11.2 58 4.8 N 28 41 15 22 1017.4 1016.6 0.0
24/09:30am 18.9 16.9 12.6 67 3.7 N 15 22 8 12 1018.0 1017.3 0.0
24/09:00am 16.9 14.9 12.8 77 2.4 N 15 19 8 10 1018.3 1017.5 6.0
24/08:30am 16.4 15.3 13.1 81 1.9 N 11 19 6 10 1018.5 1017.7 6.0
24/08:00am 13.6 13.5 13.3 98 0.2 NNW 6 9 3 5 1018.7 1018.0 6.0
24/07:30am 11.7 11.0 11.5 99 0.1 N 6 7 3 4 1018.6 1017.8 6.0
24/07:00am 10.8 9.7 10.6 99 0.1 NNW 7 9 4 5 1018.7 1018.0 6.0
24/06:30am 10.7 10.9 10.5 99 0.1 CALM 0 6 0 3 1018.6 1017.8 6.0
24/06:00am 10.1 9.3 9.8 98 0.2 N 4 7 2 4 1018.5 1017.7 6.0
24/05:30am 11.2 11.2 11.0 99 0.1 NNE 2 6 1 3 1018.3 1017.5 6.0
24/05:00am 11.9 11.6 11.6 98 0.2 ENE 4 6 2 3 1018.5 1017.7 6.0
24/04:30am 12.1 11.5 11.6 97 0.3 NNW 6 7 3 4 1018.6 1017.8 6.0
24/04:00am 11.7 10.1 11.5 99 0.1 N 11 13 6 7 1018.4 1017.6 6.0
24/03:30am 11.7 10.8 11.5 99 0.1 NNE 7 11 4 6 1018.6 1017.8 6.0
24/03:00am 11.9 11.2 11.9 100 0.0 SSW 7 15 4 8 1019.4 1018.7 6.0
24/02:30am 11.5 10.8 11.5 100 0.0 NNW 6 11 3 6 1019.4 1018.7 6.0
24/02:00am 11.2 9.5 11.2 100 0.0 NNE 11 15 6 8 1019.6 1018.8 6.0
24/01:30am 11.6 10.8 11.6 100 0.0 WNW 7 11 4 6 1021.0 1020.3 6.0
24/01:00am 11.8 11.6 11.8 100 0.0 ENE 4 7 2 4 1021.0 1020.3 5.6
24/12:30am 11.4 10.7 11.4 100 0.0 E 6 11 3 6 1021.0 1020.3 5.2
24/12:00am 11.6 10.8 11.6 100 0.0 SE 7 13 4 7 1021.1 1020.4 5.2
 
Date/Time
EDT
Temp
°C
App
Temp
°C
Dew
Point
Rel
Hum
%
Delta-T
°C
Wind Press
QNH
hPa
Press
MSL
hPa
Rain
since 9 am
mm
Dir
 
Spd
km/h
Gust
km/h
Spd
kts
Gust
kts
23/11:30pm 11.2 10.4 11.2 100 0.0 ESE 6 7 3 4 1021.3 1020.6 5.2
23/11:00pm 11.6 10.8 11.6 100 0.0 SE 7 9 4 5 1021.4 1020.7 5.2
23/10:30pm 12.0 12.2 11.8 99 0.1 SSE 2 6 1 3 1021.3 1020.6 5.2
23/10:00pm 12.3 11.5 11.8 97 0.3 S 7 9 4 5 1021.3 1020.6 5.2
23/09:30pm 12.6 12.0 11.8 95 0.4 E 6 7 3 4 1021.1 1020.4 5.2
23/09:00pm 13.3 12.4 11.5 89 1.0 WSW 7 13 4 7 1020.8 1020.1 5.2

Other Formats:

Comma delimited format used in spreadsheet applications
http://www.bom.gov.au/fwo/IDN60801/IDN60801.94929.axf

JavaScript Object Notation format (JSON) in row-major order
http://www.bom.gov.au/fwo/IDN60801/IDN60801.94929.json